Time;durP1;ratioP1;P1;durP2;ratioP2;P2;SDS_P1;SDS_P2;PMS_P1;PMS_P2;Temp;Humidity;BMP_temperature;BMP_pressure;BME280_temperature;BME280_humidity;BME280_pressure;Samples;Min_cycle;Max_cycle;Signal;HPM_P1;HPM_P2
2023/06/18 00:00:56;;;;;;;18.67;13.45;;;16.70;99.90;;;;;;4973037;28;20043;-64
2023/06/18 00:03:22;;;;;;;19.10;13.45;;;16.60;99.90;;;;;;4968686;28;20096;-63
2023/06/18 00:05:48;;;;;;;18.55;13.77;;;16.60;99.90;;;;;;4959937;28;20247;-64
2023/06/18 00:08:13;;;;;;;17.85;12.80;;;16.60;99.90;;;;;;4970699;28;20114;-64
2023/06/18 00:10:39;;;;;;;20.05;12.85;;;16.50;99.90;;;;;;4973001;28;20085;-64
2023/06/18 00:13:05;;;;;;;19.60;14.38;;;16.50;99.90;;;;;;4968601;28;20030;-64
2023/06/18 00:15:32;;;;;;;21.27;14.43;;;16.60;99.90;;;;;;4965457;28;20093;-64
2023/06/18 00:17:57;;;;;;;23.13;15.65;;;16.60;99.90;;;;;;4972149;28;20053;-64
2023/06/18 00:20:23;;;;;;;20.90;16.17;;;16.70;99.90;;;;;;4973049;28;20076;-64
2023/06/18 00:22:53;;;;;;;15.60;10.82;;;16.70;99.90;;;;;;4969408;28;20050;-64
2023/06/18 00:25:19;;;;;;;16.55;11.80;;;16.60;99.90;;;;;;4972292;28;20034;-64
2023/06/18 00:27:45;;;;;;;19.23;14.52;;;16.40;99.90;;;;;;4972641;28;20573;-64
2023/06/18 00:30:11;;;;;;;19.42;14.20;;;16.30;99.90;;;;;;4973026;28;20062;-64
2023/06/18 00:32:37;;;;;;;18.17;13.23;;;16.30;99.90;;;;;;4968627;28;20043;-64
2023/06/18 00:35:04;;;;;;;21.58;15.27;;;16.20;99.90;;;;;;4972265;28;20039;-65
2023/06/18 00:37:30;;;;;;;23.35;16.23;;;16.20;99.90;;;;;;4972671;28;20050;-64
2023/06/18 00:39:55;;;;;;;24.77;17.75;;;16.20;99.90;;;;;;4953608;28;20031;-64
2023/06/18 00:42:21;;;;;;;24.08;17.00;;;16.30;99.90;;;;;;4966454;28;20081;-64
2023/06/18 00:44:47;;;;;;;24.23;17.83;;;16.30;99.90;;;;;;4972224;28;20035;-64
2023/06/18 00:47:13;;;;;;;26.02;17.35;;;16.40;99.90;;;;;;4963792;28;20031;-64
2023/06/18 00:49:43;;;;;;;21.38;15.18;;;16.40;99.90;;;;;;4970451;28;20054;-64
2023/06/18 00:52:12;;;;;;;21.73;16.90;;;16.30;99.90;;;;;;4953409;28;20039;-64
2023/06/18 00:54:39;;;;;;;23.67;17.65;;;16.30;99.90;;;;;;4955717;28;20043;-64
2023/06/18 00:57:08;;;;;;;25.38;18.38;;;16.20;99.90;;;;;;4969598;28;20039;-64
2023/06/18 00:59:37;;;;;;;28.52;18.75;;;16.20;99.90;;;;;;4971320;28;20042;-64
2023/06/18 01:02:03;;;;;;;28.50;19.58;;;16.10;99.90;;;;;;4972621;28;20043;-64
2023/06/18 01:04:32;;;;;;;30.33;20.25;;;16.20;99.90;;;;;;4960977;28;20374;-64
2023/06/18 01:07:01;;;;;;;26.98;18.48;;;16.10;99.90;;;;;;4963917;28;20071;-64
2023/06/18 01:09:27;;;;;;;28.25;18.70;;;16.10;99.90;;;;;;4972009;28;20118;-64
2023/06/18 01:11:53;;;;;;;30.10;19.25;;;16.00;99.90;;;;;;4964838;28;20035;-64
2023/06/18 01:14:27;;;;;;;30.33;19.58;;;16.00;99.90;;;;;;4961573;28;20105;-64
2023/06/18 01:16:57;;;;;;;26.95;19.35;;;16.00;99.90;;;;;;4972122;28;20031;-64
2023/06/18 01:19:47;;;;;;;26.83;19.08;;;16.00;99.90;;;;;;4955156;28;20043;-64
2023/06/18 01:22:37;;;;;;;28.17;19.67;;;16.00;99.90;;;;;;4953448;28;20061;-64
2023/06/18 01:25:05;;;;;;;26.85;18.45;;;15.90;99.90;;;;;;4971319;28;20046;-64
2023/06/18 01:27:40;;;;;;;28.55;19.27;;;15.80;99.90;;;;;;4973285;28;20047;-64
2023/06/18 01:30:10;;;;;;;29.88;19.05;;;15.80;99.90;;;;;;4964697;28;20117;-64
2023/06/18 01:32:37;;;;;;;27.90;18.73;;;15.80;99.90;;;;;;4975524;28;20045;-64
2023/06/18 01:35:08;;;;;;;29.58;20.02;;;15.70;99.90;;;;;;4975470;28;20078;-64
2023/06/18 01:37:53;;;;;;;30.35;20.45;;;15.70;99.90;;;;;;4971695;28;20042;-64
2023/06/18 01:40:19;;;;;;;30.40;19.85;;;15.70;99.90;;;;;;4965224;28;20094;-63
2023/06/18 01:42:55;;;;;;;29.02;19.98;;;15.60;99.90;;;;;;4975754;28;20042;-65
2023/06/18 01:45:29;;;;;;;30.40;20.45;;;15.60;99.90;;;;;;4968438;28;20062;-64
2023/06/18 01:48:02;;;;;;;28.25;19.83;;;15.50;99.90;;;;;;4973906;28;20043;-64
2023/06/18 01:50:30;;;;;;;27.50;19.92;;;15.50;99.90;;;;;;4975692;28;20077;-64
2023/06/18 01:52:58;;;;;;;30.45;20.95;;;15.40;99.90;;;;;;4971178;28;20042;-64
2023/06/18 01:55:25;;;;;;;33.90;21.35;;;15.30;99.90;;;;;;4956103;28;20556;-64
2023/06/18 01:57:51;;;;;;;30.25;19.95;;;15.30;99.90;;;;;;4971627;28;20046;-64
2023/06/18 02:00:18;;;;;;;29.60;20.40;;;15.40;99.90;;;;;;4975220;28;20050;-64
2023/06/18 02:02:43;;;;;;;29.00;20.10;;;15.30;99.90;;;;;;4963194;28;20046;-64
2023/06/18 02:05:09;;;;;;;30.88;21.20;;;15.30;99.90;;;;;;4970567;28;20035;-64
2023/06/18 02:07:35;;;;;;;35.13;19.77;;;15.30;99.90;;;;;;4974949;28;20445;-64
2023/06/18 02:10:00;;;;;;;29.50;19.40;;;15.30;99.90;;;;;;4975186;28;20520;-64
2023/06/18 02:12:26;;;;;;;28.80;20.00;;;15.20;99.90;;;;;;4971020;28;20031;-63
2023/06/18 02:14:51;;;;;;;33.35;21.13;;;15.20;99.90;;;;;;4974327;28;20565;-64
2023/06/18 02:17:17;;;;;;;29.58;18.27;;;15.10;99.90;;;;;;4974582;28;20382;-63
2023/06/18 02:19:43;;;;;;;28.58;19.42;;;15.10;99.90;;;;;;4957108;28;20040;-64
2023/06/18 02:22:09;;;;;;;24.80;16.30;;;15.10;99.90;;;;;;4967613;28;20062;-64
2023/06/18 02:24:35;;;;;;;29.23;19.20;;;15.10;99.90;;;;;;4974877;28;20524;-63
2023/06/18 02:27:00;;;;;;;27.13;18.40;;;15.10;99.90;;;;;;4967602;28;20725;-64
2023/06/18 02:29:26;;;;;;;32.72;20.05;;;15.00;99.90;;;;;;4961726;28;20038;-64
2023/06/18 02:31:51;;;;;;;32.13;21.98;;;14.90;99.90;;;;;;4974518;28;20045;-63
2023/06/18 02:34:18;;;;;;;30.40;20.65;;;14.90;99.90;;;;;;4975145;28;20401;-63
2023/06/18 02:36:44;;;;;;;33.00;21.15;;;14.90;99.90;;;;;;4961355;28;20050;-64
2023/06/18 02:39:10;;;;;;;32.50;20.65;;;14.90;99.90;;;;;;4973048;28;20136;-64
2023/06/18 02:41:35;;;;;;;33.97;21.83;;;14.90;99.90;;;;;;4974768;28;20478;-64
2023/06/18 02:44:04;;;;;;;31.80;20.58;;;15.00;99.90;;;;;;4964446;28;20034;-63
2023/06/18 02:46:30;;;;;;;33.22;20.50;;;14.90;99.90;;;;;;4970067;28;20046;-63
2023/06/18 02:48:55;;;;;;;150.88;16.67;;;14.90;99.90;;;;;;4974411;28;20597;-63
2023/06/18 02:51:21;;;;;;;26.70;19.45;;;14.90;99.90;;;;;;4964795;28;23506;-64
2023/06/18 02:53:47;;;;;;;27.20;19.67;;;14.80;99.90;;;;;;4964577;28;20027;-65
2023/06/18 02:56:13;;;;;;;25.65;17.35;;;14.80;99.90;;;;;;4974124;28;20037;-64
2023/06/18 02:58:39;;;;;;;22.00;15.32;;;14.70;99.90;;;;;;4974207;28;20054;-64
2023/06/18 03:01:04;;;;;;;31.92;20.70;;;14.70;99.90;;;;;;4963127;28;20038;-64
2023/06/18 03:03:30;;;;;;;113.07;16.10;;;14.80;99.90;;;;;;4969780;28;20041;-64
2023/06/18 03:05:57;;;;;;;20.38;13.30;;;14.50;99.90;;;;;;4974119;28;20038;-63
2023/06/18 03:08:23;;;;;;;38.45;13.15;;;14.40;99.90;;;;;;4960144;28;20074;-64
2023/06/18 03:10:49;;;;;;;19.42;13.50;;;14.40;99.90;;;;;;4963510;28;20117;-64
2023/06/18 03:13:14;;;;;;;24.20;16.42;;;14.40;99.90;;;;;;4974173;28;20042;-64
2023/06/18 03:15:40;;;;;;;24.05;15.20;;;14.50;99.90;;;;;;4974213;28;20031;-63
2023/06/18 03:18:06;;;;;;;23.65;12.35;;;14.50;99.90;;;;;;4970135;28;20592;-64
2023/06/18 03:20:32;;;;;;;46.20;11.30;;;14.50;99.90;;;;;;4964951;28;20039;-64
2023/06/18 03:22:58;;;;;;;91.20;14.57;;;14.50;99.90;;;;;;4973700;28;20050;-64
2023/06/18 03:25:24;;;;;;;20.92;11.45;;;14.50;99.90;;;;;;4965930;28;20508;-64
2023/06/18 03:27:50;;;;;;;20.38;14.00;;;14.40;99.90;;;;;;4971042;28;20085;-64
2023/06/18 03:30:16;;;;;;;21.00;14.63;;;14.20;99.90;;;;;;4965582;28;20031;-64
2023/06/18 03:32:42;;;;;;;29.08;18.88;;;14.30;99.90;;;;;;4970756;28;20401;-64
2023/06/18 03:35:08;;;;;;;28.85;19.88;;;14.30;99.90;;;;;;4973608;28;20038;-64
2023/06/18 03:37:35;;;;;;;31.67;20.60;;;14.30;99.90;;;;;;4973555;28;20039;-64
2023/06/18 03:40:03;;;;;;;27.92;19.30;;;14.40;99.90;;;;;;4961536;28;20047;-64
2023/06/18 03:42:29;;;;;;;31.55;20.38;;;14.50;99.90;;;;;;4959230;28;20122;-64
2023/06/18 03:44:55;;;;;;;29.77;20.50;;;14.50;99.90;;;;;;4962802;28;20129;-62
2023/06/18 03:47:20;;;;;;;28.98;19.63;;;14.50;99.90;;;;;;4971460;28;20031;-62
2023/06/18 03:49:46;;;;;;;35.75;20.75;;;14.60;99.90;;;;;;4972789;28;20035;-63
2023/06/18 03:52:12;;;;;;;31.80;20.63;;;14.60;99.90;;;;;;4972707;28;20030;-65
2023/06/18 03:54:38;;;;;;;38.05;21.35;;;14.70;99.90;;;;;;4958214;28;20497;-63
2023/06/18 03:57:04;;;;;;;36.75;22.63;;;14.70;99.90;;;;;;4972926;28;20066;-63
2023/06/18 03:59:30;;;;;;;45.35;23.80;;;14.90;99.90;;;;;;4957066;28;20032;-63
2023/06/18 04:01:56;;;;;;;41.55;24.42;;;15.00;99.90;;;;;;4964801;28;20554;-63
2023/06/18 04:04:22;;;;;;;36.20;21.83;;;15.10;99.90;;;;;;4973084;28;20126;-64
2023/06/18 04:06:48;;;;;;;38.83;23.73;;;15.20;99.90;;;;;;4965275;28;20114;-63
2023/06/18 04:09:14;;;;;;;38.88;23.27;;;15.20;99.90;;;;;;4958390;28;20050;-63
2023/06/18 04:11:40;;;;;;;35.83;22.40;;;15.30;99.90;;;;;;4972813;28;20031;-62
2023/06/18 04:14:07;;;;;;;34.67;21.88;;;15.30;99.90;;;;;;4958952;28;20042;-63
2023/06/18 04:16:32;;;;;;;38.08;22.92;;;15.30;99.90;;;;;;4967401;28;20114;-63
2023/06/18 04:18:58;;;;;;;40.53;23.70;;;15.40;99.90;;;;;;4971355;28;20117;-63
2023/06/18 04:21:24;;;;;;;38.67;22.98;;;15.50;99.90;;;;;;4973172;28;20039;-63
2023/06/18 04:23:50;;;;;;;41.55;23.70;;;15.50;99.90;;;;;;4968213;28;20038;-63
2023/06/18 04:26:15;;;;;;;40.97;23.10;;;15.60;99.90;;;;;;4970427;28;20031;-63
2023/06/18 04:28:41;;;;;;;41.65;24.05;;;15.70;99.90;;;;;;4972168;28;20085;-63
2023/06/18 04:31:06;;;;;;;41.47;24.17;;;15.70;99.90;;;;;;4971322;28;20045;-64
2023/06/18 04:33:33;;;;;;;46.35;25.20;;;15.80;99.90;;;;;;4964007;28;20612;-63
2023/06/18 04:35:58;;;;;;;38.30;23.90;;;15.90;99.90;;;;;;4970315;28;20047;-62
2023/06/18 04:38:24;;;;;;;39.50;24.00;;;15.80;99.90;;;;;;4964415;28;20039;-63
2023/06/18 04:40:50;;;;;;;45.63;24.52;;;15.90;99.90;;;;;;4962388;28;20035;-62
2023/06/18 04:43:17;;;;;;;46.30;24.00;;;15.90;99.90;;;;;;4972654;28;20039;-63
2023/06/18 04:45:46;;;;;;;41.97;25.50;;;16.00;99.90;;;;;;4971370;28;20093;-64
2023/06/18 04:48:14;;;;;;;42.47;24.85;;;16.00;99.90;;;;;;4964110;28;20039;-63
2023/06/18 04:50:40;;;;;;;47.10;26.02;;;16.00;99.90;;;;;;4962299;28;20038;-63
2023/06/18 04:53:06;;;;;;;42.53;25.10;;;16.00;99.90;;;;;;4971973;28;20050;-62
2023/06/18 04:55:31;;;;;;;42.92;25.58;;;16.10;99.90;;;;;;4972882;28;20042;-63
2023/06/18 04:57:58;;;;;;;45.17;26.33;;;16.10;99.90;;;;;;4967021;28;20042;-63
2023/06/18 05:00:24;;;;;;;43.92;26.08;;;16.20;99.90;;;;;;4975897;28;20038;-64
2023/06/18 05:02:49;;;;;;;42.15;25.75;;;16.20;99.90;;;;;;4984058;28;20385;-63
2023/06/18 05:05:15;;;;;;;49.97;27.52;;;16.30;99.90;;;;;;4979043;28;20042;-63
2023/06/18 05:07:41;;;;;;;47.10;25.77;;;16.30;99.90;;;;;;4978547;28;20042;-64
2023/06/18 05:10:08;;;;;;;47.05;27.90;;;16.40;99.90;;;;;;4980162;28;20069;-63
2023/06/18 05:12:34;;;;;;;47.28;26.33;;;16.50;99.90;;;;;;4985746;28;20034;-63
2023/06/18 05:14:59;;;;;;;48.33;26.38;;;16.60;99.90;;;;;;4978287;28;20043;-64
2023/06/18 05:17:25;;;;;;;49.33;27.80;;;16.70;99.90;;;;;;4979072;28;20043;-64
2023/06/18 05:19:51;;;;;;;54.55;27.70;;;16.80;99.90;;;;;;4983382;28;20038;-63
2023/06/18 05:22:16;;;;;;;46.45;27.65;;;16.80;99.90;;;;;;4973918;28;20787;-63
2023/06/18 05:24:42;;;;;;;44.88;26.52;;;16.90;99.90;;;;;;4982944;28;20046;-63
2023/06/18 05:27:08;;;;;;;46.63;27.17;;;17.00;99.90;;;;;;4982271;28;20042;-64
2023/06/18 05:29:33;;;;;;;44.63;27.50;;;17.00;99.90;;;;;;4982646;28;20038;-63
2023/06/18 05:31:59;;;;;;;43.47;27.02;;;17.10;99.90;;;;;;4960072;28;20069;-63
2023/06/18 05:34:24;;;;;;;46.58;27.48;;;17.20;99.90;;;;;;4974770;28;20046;-64
2023/06/18 05:36:50;;;;;;;46.10;26.55;;;17.40;99.90;;;;;;4972450;28;20054;-63
2023/06/18 05:39:16;;;;;;;46.75;27.80;;;17.50;99.90;;;;;;4972959;28;20049;-64
2023/06/18 05:41:42;;;;;;;45.63;27.58;;;17.60;99.90;;;;;;4982186;28;20042;-63
2023/06/18 05:44:07;;;;;;;46.30;28.20;;;17.70;99.90;;;;;;4979179;28;20048;-65
2023/06/18 05:46:33;;;;;;;46.15;28.10;;;17.80;99.90;;;;;;4985236;28;20117;-64
2023/06/18 05:48:58;;;;;;;46.92;28.00;;;17.90;99.90;;;;;;4969336;28;20042;-64
2023/06/18 05:51:24;;;;;;;43.90;27.25;;;18.10;99.90;;;;;;4979204;28;20037;-63
2023/06/18 05:53:50;;;;;;;48.13;27.38;;;18.20;99.90;;;;;;4983620;28;20779;-63
2023/06/18 05:56:15;;;;;;;47.10;27.17;;;18.40;99.90;;;;;;4976352;28;20100;-64
2023/06/18 05:58:41;;;;;;;47.67;28.67;;;18.60;99.90;;;;;;4981297;28;20042;-65
2023/06/18 06:01:06;;;;;;;47.38;28.02;;;18.80;99.90;;;;;;4983025;28;20712;-64
2023/06/18 06:03:35;;;;;;;44.42;26.83;;;19.00;99.90;;;;;;4971380;28;20113;-63
2023/06/18 06:06:02;;;;;;;46.95;27.63;;;19.20;99.90;;;;;;4974570;28;20057;-64
2023/06/18 06:08:28;;;;;;;40.17;26.17;;;19.40;99.90;;;;;;4971086;28;20039;-65
2023/06/18 06:10:54;;;;;;;44.17;27.42;;;19.70;99.90;;;;;;4981786;28;20035;-64
2023/06/18 06:13:19;;;;;;;39.17;25.77;;;19.80;99.90;;;;;;4971344;28;20034;-64
2023/06/18 06:15:45;;;;;;;39.40;24.98;;;20.00;99.90;;;;;;4978980;28;20121;-63
2023/06/18 06:18:11;;;;;;;43.13;26.00;;;20.10;99.90;;;;;;4977938;28;20505;-63
2023/06/18 06:20:36;;;;;;;38.95;25.13;;;20.20;99.90;;;;;;4966157;28;20897;-64
2023/06/18 06:23:02;;;;;;;41.08;25.38;;;20.20;99.90;;;;;;4979515;28;20069;-64
2023/06/18 06:25:28;;;;;;;38.28;25.40;;;20.20;99.90;;;;;;4978777;28;20126;-63
2023/06/18 06:27:54;;;;;;;40.47;24.88;;;20.20;99.90;;;;;;4971228;28;20043;-64
2023/06/18 06:30:20;;;;;;;39.40;25.30;;;20.10;99.90;;;;;;4969659;28;20035;-63
2023/06/18 06:32:45;;;;;;;38.45;25.48;;;20.10;99.90;;;;;;4968757;28;20094;-63
2023/06/18 06:35:11;;;;;;;38.33;25.38;;;20.20;99.90;;;;;;4965959;28;20410;-64
2023/06/18 06:37:36;;;;;;;38.33;25.77;;;20.40;99.90;;;;;;4960929;28;20049;-63
2023/06/18 06:40:03;;;;;;;38.08;25.15;;;20.60;99.90;;;;;;4957467;28;20043;-64
2023/06/18 06:42:29;;;;;;;35.72;23.90;;;20.80;99.90;;;;;;4965497;28;20046;-63
2023/06/18 06:44:55;;;;;;;37.63;24.70;;;20.90;99.90;;;;;;4961668;28;20057;-64
2023/06/18 06:47:20;;;;;;;37.58;23.75;;;21.00;99.90;;;;;;4964165;28;20101;-64
2023/06/18 06:49:46;;;;;;;38.53;24.55;;;21.00;99.90;;;;;;4961608;28;20040;-64
2023/06/18 06:52:11;;;;;;;39.30;24.48;;;21.10;99.90;;;;;;4946183;28;20039;-64
2023/06/18 06:54:37;;;;;;;34.90;24.35;;;21.20;99.90;;;;;;4962685;28;20066;-65
2023/06/18 06:57:03;;;;;;;37.10;24.60;;;21.40;99.90;;;;;;4983042;28;20046;-63
2023/06/18 06:59:29;;;;;;;37.42;24.58;;;21.50;99.90;;;;;;4976220;28;20167;-63
2023/06/18 07:01:55;;;;;;;37.00;23.40;;;21.60;99.90;;;;;;4966453;28;20054;-63
2023/06/18 07:04:21;;;;;;;37.53;24.33;;;21.70;99.90;;;;;;4965594;28;20054;-64
2023/06/18 07:06:46;;;;;;;36.33;23.95;;;21.80;99.90;;;;;;4967994;28;20392;-65
2023/06/18 07:09:12;;;;;;;37.63;23.75;;;21.90;99.90;;;;;;4978009;28;20038;-64
2023/06/18 07:11:40;;;;;;;34.70;23.20;;;21.90;99.90;;;;;;4974470;28;20048;-65
2023/06/18 07:14:05;;;;;;;33.97;23.70;;;21.90;99.90;;;;;;4956732;28;20044;-64
2023/06/18 07:16:31;;;;;;;37.00;24.20;;;22.00;99.90;;;;;;4962826;28;20034;-64
2023/06/18 07:18:57;;;;;;;35.00;23.75;;;22.00;99.90;;;;;;4954416;28;20035;-64
2023/06/18 07:21:22;;;;;;;33.05;23.33;;;22.00;99.90;;;;;;4961453;28;20117;-63
2023/06/18 07:23:48;;;;;;;33.05;23.60;;;21.90;99.90;;;;;;4973483;28;20034;-63
2023/06/18 07:26:14;;;;;;;36.40;22.95;;;21.90;99.90;;;;;;4973459;28;20406;-63
2023/06/18 07:28:39;;;;;;;38.67;22.35;;;21.90;99.90;;;;;;4953632;28;20501;-64
2023/06/18 07:31:05;;;;;;;29.95;22.92;;;22.00;99.90;;;;;;4967428;28;20038;-64
2023/06/18 07:33:31;;;;;;;31.55;21.83;;;22.10;99.90;;;;;;4977627;28;20054;-65
2023/06/18 07:35:57;;;;;;;33.40;22.65;;;22.30;99.90;;;;;;4955882;28;20050;-65
2023/06/18 07:38:22;;;;;;;37.70;22.95;;;22.40;99.90;;;;;;4963151;28;20030;-62
2023/06/18 07:40:48;;;;;;;33.05;23.05;;;22.50;99.90;;;;;;4964630;28;20153;-63
2023/06/18 07:43:14;;;;;;;32.65;22.60;;;22.60;99.90;;;;;;4984990;28;20042;-64
2023/06/18 07:45:40;;;;;;;35.50;22.67;;;22.80;99.90;;;;;;4961109;28;20112;-63
2023/06/18 07:48:07;;;;;;;28.70;21.88;;;22.90;99.90;;;;;;4962012;28;20045;-63
2023/06/18 07:50:33;;;;;;;31.15;22.58;;;22.90;99.90;;;;;;4962963;28;20042;-64
2023/06/18 07:52:59;;;;;;;32.60;21.92;;;23.10;99.90;;;;;;4961134;28;20031;-64
2023/06/18 07:55:25;;;;;;;30.48;21.30;;;23.10;99.90;;;;;;4967763;28;20041;-63
2023/06/18 07:57:50;;;;;;;29.75;21.30;;;23.20;99.90;;;;;;4972877;28;20122;-63
2023/06/18 08:00:16;;;;;;;26.58;20.27;;;23.30;99.90;;;;;;4966947;28;20089;-64
2023/06/18 08:02:42;;;;;;;30.80;21.50;;;23.40;99.90;;;;;;4964777;28;20061;-64
2023/06/18 08:05:08;;;;;;;27.02;20.83;;;23.50;99.90;;;;;;4973062;28;20494;-63
2023/06/18 08:07:35;;;;;;;28.92;20.77;;;23.70;99.90;;;;;;4973040;28;20066;-63
2023/06/18 08:10:01;;;;;;;28.58;20.67;;;23.80;99.90;;;;;;4969454;28;20074;-63
2023/06/18 08:12:26;;;;;;;27.48;19.90;;;23.80;99.90;;;;;;4972806;28;20147;-63
2023/06/18 08:14:52;;;;;;;27.67;20.40;;;23.90;99.90;;;;;;4972982;28;20043;-64
2023/06/18 08:17:17;;;;;;;27.88;19.02;;;24.10;99.90;;;;;;4972848;28;20066;-64
2023/06/18 08:19:47;;;;;;;23.35;17.67;;;24.30;99.90;;;;;;4967339;28;20049;-63
2023/06/18 08:22:14;;;;;;;23.00;17.17;;;24.40;99.80;;;;;;4973207;28;20117;-63
2023/06/18 08:24:40;;;;;;;26.55;20.52;;;24.60;99.60;;;;;;4969043;28;20066;-63
2023/06/18 08:27:06;;;;;;;24.48;18.70;;;24.70;99.70;;;;;;4963426;28;20035;-63
2023/06/18 08:29:32;;;;;;;21.27;16.80;;;24.80;99.60;;;;;;4972042;28;20031;-63
2023/06/18 08:32:00;;;;;;;22.30;16.48;;;25.00;98.90;;;;;;4972986;28;20196;-63
2023/06/18 08:34:26;;;;;;;20.85;17.27;;;25.20;98.50;;;;;;4966564;28;20066;-63
2023/06/18 08:36:51;;;;;;;20.58;16.20;;;25.30;98.00;;;;;;4972230;28;20497;-63
2023/06/18 08:39:17;;;;;;;25.08;15.65;;;25.40;97.60;;;;;;4972745;28;20406;-64
2023/06/18 08:41:45;;;;;;;21.92;16.52;;;25.50;97.50;;;;;;4967892;28;20039;-63
2023/06/18 08:44:11;;;;;;;18.90;15.32;;;25.60;96.50;;;;;;4967737;28;20092;-64
2023/06/18 08:46:39;;;;;;;20.17;12.90;;;25.70;96.40;;;;;;4972562;28;20486;-63
2023/06/18 08:49:06;;;;;;;19.15;14.27;;;25.80;95.60;;;;;;4972476;28;20043;-64
2023/06/18 08:51:33;;;;;;;18.25;14.07;;;25.90;94.90;;;;;;4962721;28;20085;-63
2023/06/18 08:54:07;;;;;;;14.20;11.80;;;26.00;94.50;;;;;;4967669;28;20038;-64
2023/06/18 08:56:37;;;;;;;14.77;12.57;;;26.10;93.00;;;;;;4972471;28;20044;-63
2023/06/18 08:59:04;;;;;;;15.65;12.18;;;26.20;93.20;;;;;;4962666;28;20054;-63
2023/06/18 09:01:30;;;;;;;16.05;12.18;;;26.30;92.50;;;;;;4961664;28;20501;-63
2023/06/18 09:03:58;;;;;;;14.85;11.60;;;26.30;91.80;;;;;;4972305;28;20085;-63
2023/06/18 09:06:24;;;;;;;13.63;11.48;;;26.40;91.90;;;;;;4972697;28;20042;-64
2023/06/18 09:08:50;;;;;;;16.70;12.60;;;26.50;91.60;;;;;;4957567;28;20106;-64
2023/06/18 09:11:15;;;;;;;18.77;11.50;;;26.60;91.30;;;;;;4968687;28;20057;-63
2023/06/18 09:13:42;;;;;;;15.07;11.48;;;26.70;90.40;;;;;;4972406;28;20129;-64
2023/06/18 09:16:09;;;;;;;16.15;11.93;;;26.90;90.00;;;;;;4961122;28;20625;-64
2023/06/18 09:18:35;;;;;;;14.05;10.50;;;27.00;88.40;;;;;;4971249;28;20067;-63
2023/06/18 09:21:03;;;;;;;12.95;10.23;;;27.10;87.60;;;;;;4972501;28;20086;-64
2023/06/18 09:23:28;;;;;;;13.65;10.63;;;27.20;87.20;;;;;;4969051;28;20466;-64
2023/06/18 09:25:55;;;;;;;17.10;10.07;;;27.20;86.60;;;;;;4967520;28;20520;-64
2023/06/18 09:28:21;;;;;;;14.85;10.40;;;27.40;84.40;;;;;;4971876;28;20405;-64
2023/06/18 09:30:58;;;;;;;14.43;10.52;;;27.40;83.40;;;;;;4972461;28;20039;-63
2023/06/18 09:33:32;;;;;;;13.20;11.02;;;27.40;83.00;;;;;;4967659;28;20031;-64
2023/06/18 09:36:08;;;;;;;16.35;11.65;;;27.70;82.20;;;;;;4971862;28;20162;-63
2023/06/18 09:38:34;;;;;;;14.70;11.38;;;27.80;79.20;;;;;;4972382;28;20611;-63
2023/06/18 09:41:00;;;;;;;15.93;10.57;;;28.00;82.30;;;;;;4964852;28;20134;-64
2023/06/18 09:43:36;;;;;;;12.02;10.70;;;28.10;82.00;;;;;;4967340;28;20114;-65
2023/06/18 09:46:06;;;;;;;13.85;10.48;;;28.20;78.90;;;;;;4971515;28;20498;-63
2023/06/18 09:48:35;;;;;;;14.07;10.40;;;28.30;77.50;;;;;;4964942;28;20488;-63
2023/06/18 09:51:01;;;;;;;14.85;10.52;;;28.50;79.10;;;;;;4964172;28;20043;-63
2023/06/18 09:53:27;;;;;;;14.52;10.48;;;28.70;79.00;;;;;;4975456;28;20039;-62
2023/06/18 09:55:52;;;;;;;11.80;9.18;;;28.90;77.40;;;;;;4959506;28;20127;-63
2023/06/18 09:58:18;;;;;;;13.68;9.60;;;28.90;76.50;;;;;;4964103;28;20031;-63
2023/06/18 10:01:02;;;;;;;13.27;10.18;;;28.90;75.80;;;;;;4975075;28;20035;-62
2023/06/18 10:03:29;;;;;;;16.23;10.68;;;28.90;70.60;;;;;;4964506;28;20043;-64
2023/06/18 10:05:56;;;;;;;12.20;10.23;;;28.80;73.30;;;;;;4956159;28;20069;-63
2023/06/18 10:08:22;;;;;;;12.00;9.05;;;28.90;71.30;;;;;;4984176;28;20034;-62
2023/06/18 10:10:49;;;;;;;13.10;9.45;;;29.00;72.30;;;;;;4985979;28;20034;-63
2023/06/18 10:13:15;;;;;;;11.30;8.82;;;28.90;71.60;;;;;;4985165;28;20034;-62
2023/06/18 10:15:42;;;;;;;10.65;9.40;;;28.70;72.10;;;;;;4974320;28;20515;-63
2023/06/18 10:18:11;;;;;;;12.73;10.20;;;28.80;70.90;;;;;;4982239;28;20053;-61
2023/06/18 10:20:37;;;;;;;14.07;10.68;;;29.00;71.90;;;;;;4986047;28;20413;-63
2023/06/18 10:23:08;;;;;;;12.80;9.98;;;29.00;71.20;;;;;;4959406;28;20038;-63
2023/06/18 10:25:34;;;;;;;12.35;9.23;;;29.00;69.90;;;;;;4971252;28;20034;-63
2023/06/18 10:28:00;;;;;;;13.70;9.93;;;29.00;70.20;;;;;;4974816;28;20042;-63
2023/06/18 10:30:26;;;;;;;10.40;8.85;;;29.10;70.80;;;;;;4963839;28;20505;-63
2023/06/18 10:32:53;;;;;;;11.40;8.30;;;29.20;69.30;;;;;;4977424;28;20096;-63
2023/06/18 10:35:20;;;;;;;12.48;8.80;;;29.10;67.90;;;;;;4978515;28;20034;-63
2023/06/18 10:37:46;;;;;;;11.52;8.98;;;29.20;68.20;;;;;;4978414;28;20039;-63
2023/06/18 10:40:12;;;;;;;12.55;9.02;;;29.00;67.20;;;;;;4954208;28;20034;-61
2023/06/18 10:42:39;;;;;;;12.48;8.75;;;29.00;66.10;;;;;;4962445;28;20043;-63
2023/06/18 10:45:12;;;;;;;11.48;8.60;;;29.10;67.00;;;;;;4966110;28;20058;-63
2023/06/18 10:47:39;;;;;;;10.27;9.10;;;29.20;66.30;;;;;;4965980;28;20035;-63
2023/06/18 10:50:07;;;;;;;9.63;8.65;;;29.30;66.50;;;;;;4962933;28;20039;-62
2023/06/18 10:52:50;;;;;;;17.00;8.95;;;29.40;65.50;;;;;;4967322;28;20042;-62
2023/06/18 10:55:28;;;;;;;10.35;8.68;;;29.60;63.80;;;;;;4960008;28;20079;-63
2023/06/18 10:58:01;;;;;;;12.75;9.95;;;29.60;63.70;;;;;;4967297;28;20489;-62
2023/06/18 11:00:34;;;;;;;10.25;9.05;;;29.50;62.90;;;;;;4968818;28;20039;-62
2023/06/18 11:03:11;;;;;;;12.70;9.70;;;29.50;62.30;;;;;;4974321;28;20042;-63
2023/06/18 11:05:51;;;;;;;10.98;8.88;;;29.50;63.80;;;;;;4974237;28;20039;-63
2023/06/18 11:08:30;;;;;;;13.55;8.43;;;29.30;62.30;;;;;;4969010;28;20042;-63
2023/06/18 11:11:23;;;;;;;11.68;9.35;;;29.30;65.40;;;;;;4982431;28;20034;-63
2023/06/18 11:13:53;;;;;;;10.57;9.15;;;29.30;62.30;;;;;;4965922;28;20049;-64
2023/06/18 11:16:20;;;;;;;9.88;8.88;;;29.30;64.20;;;;;;4981339;28;20311;-63
2023/06/18 11:18:45;;;;;;;9.50;8.45;;;28.90;62.80;;;;;;4984098;28;20052;-62
2023/06/18 11:21:19;;;;;;;17.42;9.13;;;28.70;63.50;;;;;;4969349;28;20877;-63
2023/06/18 11:23:46;;;;;;;11.10;8.77;;;28.80;62.60;;;;;;4970293;28;20049;-62
2023/06/18 11:26:22;;;;;;;11.23;8.70;;;28.70;64.10;;;;;;4964734;28;20046;-64
2023/06/18 11:28:49;;;;;;;11.15;8.90;;;28.60;63.60;;;;;;4961696;28;20035;-63
2023/06/18 11:31:14;;;;;;;12.70;9.00;;;28.50;62.70;;;;;;4955084;28;20039;-63
2023/06/18 11:33:47;;;;;;;12.43;9.23;;;28.50;62.50;;;;;;4957042;28;20393;-62
2023/06/18 11:36:15;;;;;;;12.18;8.68;;;28.70;62.00;;;;;;4972845;28;20074;-63
2023/06/18 11:38:41;;;;;;;14.40;8.95;;;28.80;63.30;;;;;;4971831;28;20046;-63
2023/06/18 11:41:07;;;;;;;12.63;8.52;;;29.00;62.80;;;;;;4968966;28;20049;-63
2023/06/18 11:43:52;;;;;;;10.55;8.70;;;29.20;62.40;;;;;;4956400;28;20126;-64
2023/06/18 11:46:34;;;;;;;10.15;8.75;;;29.40;60.00;;;;;;4969244;28;20042;-63
2023/06/18 11:48:59;;;;;;;9.73;8.73;;;29.70;60.60;;;;;;4972506;28;20042;-63
2023/06/18 11:51:26;;;;;;;11.35;8.57;;;29.90;61.40;;;;;;4973494;28;20035;-62
2023/06/18 11:53:53;;;;;;;10.18;8.82;;;30.20;61.80;;;;;;4973182;28;20042;-67
2023/06/18 11:56:26;;;;;;;10.52;8.80;;;30.20;60.60;;;;;;4968302;28;20545;-64
2023/06/18 11:58:53;;;;;;;9.95;8.15;;;30.30;59.90;;;;;;4969366;28;20046;-62
2023/06/18 12:01:19;;;;;;;9.45;8.45;;;30.30;59.00;;;;;;4954208;28;20043;-61
2023/06/18 12:03:45;;;;;;;12.85;8.98;;;30.40;59.00;;;;;;4961168;28;20045;-64
2023/06/18 12:06:15;;;;;;;10.27;8.50;;;30.40;58.50;;;;;;4972786;28;20089;-60
2023/06/18 12:08:47;;;;;;;10.33;8.33;;;30.60;56.90;;;;;;4972119;28;20118;-63
2023/06/18 12:11:23;;;;;;;12.23;9.20;;;30.80;57.70;;;;;;4973106;28;20030;-63
2023/06/18 12:13:54;;;;;;;9.00;8.07;;;31.10;57.30;;;;;;4988472;28;20035;-63
2023/06/18 12:16:25;;;;;;;11.95;8.15;;;31.30;57.60;;;;;;4992282;28;20141;-63
2023/06/18 12:19:01;;;;;;;10.73;8.80;;;31.20;56.20;;;;;;4979261;28;20038;-64
2023/06/18 12:21:27;;;;;;;10.27;8.93;;;31.40;56.40;;;;;;4982778;28;20070;-63
2023/06/18 12:23:53;;;;;;;10.18;8.27;;;31.60;56.30;;;;;;4989145;28;20037;-63
2023/06/18 12:26:19;;;;;;;10.80;8.85;;;31.70;56.20;;;;;;4981625;28;20039;-63
2023/06/18 12:28:45;;;;;;;9.25;8.30;;;32.00;55.40;;;;;;4972786;28;20038;-63